Startpagina
METAR-TAF:

METAR-TAF

Vliegvelden :

Brunei, Brunei

Brunei International Airport

breedte: 04-56N, lengte: 114-56E, hoogte: 22 m

Actueel weer

Dit bericht is 43 minuten geleden gemaakt, om 15:30 UTC
Wind 1 kt uit het zuidwesten
Temperatuur 27°C
Vochtigheid 89%
Druk 1011 hPa
Zicht 10 km of meer
Weinig wolken op 1500 ft
Gebroken wolken op 28000 ft

METAR: WBSB 261530Z 23001KT 9999 FEW015 BKN280 27/25 Q1011 NOSIG

Tijdstip: 00:13 (16:13 UTC)

Verwachting

Dit bericht is 5 uur en het 23 minuten geleden gemaakt, om 10:50 UTC
Verwachting geldig van 26 om 12 UTC tot 27 om 18 UTC
Wind 6 kt uit het noordoosten
Zicht 10 km of meer
Weinig wolken op 1500 ft
Gebroken wolken op 30000 ft
Wijzigt naar
van 26 om 14 UTC tot 26 om 16 UTC
Wind 3 kt uit het zuiden
Weinig wolken op 1400 ft

TAF: WBSB 261050Z 2612/2718 04006KT 9999 FEW015 BKN300 BECMG 2614/2616 18003KT FEW014

Waarnemingen en weersverwachtingen van meer dan 4000 vliegvelden (METAR en TAF).

De beschikbare stations zijn de gele en rode punten op de kaart.

Ga met uw muis naar het station om de naam te zien.

Klik dan om waarnemingen en weersverwachtingen te zien.

kaart wijzigen: klik op de groene knoppen met een zwart kruis om in te zoomen, op de groene knop met een streepje om uit te zoomen of op de groene pijlen voor aangrenzende kaarten.


METAR-TAF: